sensor_id;sensor_type;location;lat;lon;timestamp;pressure;altitude;pressure_sealevel;temperature;humidity
38616;BME280;24370;51.986;4.666;2023-06-10T00:01:54;101531.88;;;33.35;26.62
38616;BME280;24370;51.986;4.666;2023-06-10T00:04:25;101531.13;;;32.85;27.57
38616;BME280;24370;51.986;4.666;2023-06-10T00:06:50;101524.22;;;32.03;28.50
38616;BME280;24370;51.986;4.666;2023-06-10T00:09:15;101527.66;;;33.03;28.28
38616;BME280;24370;51.986;4.666;2023-06-10T00:11:41;101528.25;;;32.96;28.02
38616;BME280;24370;51.986;4.666;2023-06-10T00:14:07;101526.78;;;32.14;28.93
38616;BME280;24370;51.986;4.666;2023-06-10T00:16:33;101529.34;;;32.06;28.69
38616;BME280;24370;51.986;4.666;2023-06-10T00:19:02;101532.19;;;31.94;28.97
38616;BME280;24370;51.986;4.666;2023-06-10T00:21:33;101526.72;;;31.85;28.95
38616;BME280;24370;51.986;4.666;2023-06-10T00:24:04;101529.41;;;31.44;29.20
38616;BME280;24370;51.986;4.666;2023-06-10T00:26:30;101523.44;;;31.50;29.12
38616;BME280;24370;51.986;4.666;2023-06-10T00:28:55;101524.28;;;31.41;29.39
38616;BME280;24370;51.986;4.666;2023-06-10T00:31:21;101526.53;;;31.36;29.34
38616;BME280;24370;51.986;4.666;2023-06-10T00:33:46;101524.56;;;31.69;28.99
38616;BME280;24370;51.986;4.666;2023-06-10T00:36:11;101524.63;;;31.26;29.36
38616;BME280;24370;51.986;4.666;2023-06-10T00:38:37;101522.47;;;31.20;29.32
38616;BME280;24370;51.986;4.666;2023-06-10T00:41:02;101528.22;;;31.06;29.45
38616;BME280;24370;51.986;4.666;2023-06-10T00:43:27;101528.72;;;31.00;29.72
38616;BME280;24370;51.986;4.666;2023-06-10T00:45:53;101528.38;;;30.72;30.08
38616;BME280;24370;51.986;4.666;2023-06-10T00:48:18;101532.16;;;30.48;30.70
38616;BME280;24370;51.986;4.666;2023-06-10T00:50:46;101525.41;;;30.96;29.53
38616;BME280;24370;51.986;4.666;2023-06-10T00:53:12;101529.31;;;31.24;29.33
38616;BME280;24370;51.986;4.666;2023-06-10T00:55:37;101528.59;;;31.01;29.29
38616;BME280;24370;51.986;4.666;2023-06-10T00:58:04;101525.38;;;30.54;30.11
38616;BME280;24370;51.986;4.666;2023-06-10T01:00:29;101521.41;;;31.11;29.53
38616;BME280;24370;51.986;4.666;2023-06-10T01:02:55;101521.88;;;30.31;30.38
38616;BME280;24370;51.986;4.666;2023-06-10T01:05:21;101529.03;;;30.20;30.31
38616;BME280;24370;51.986;4.666;2023-06-10T01:10:49;101524.94;;;30.37;30.57
38616;BME280;24370;51.986;4.666;2023-06-10T01:13:16;101524.13;;;31.11;29.05
38616;BME280;24370;51.986;4.666;2023-06-10T01:15:43;101526.16;;;31.19;28.90
38616;BME280;24370;51.986;4.666;2023-06-10T01:18:10;101531.59;;;30.66;29.92
38616;BME280;24370;51.986;4.666;2023-06-10T01:20:41;101527.38;;;30.73;29.70
38616;BME280;24370;51.986;4.666;2023-06-10T01:23:09;101533.47;;;30.86;29.50
38616;BME280;24370;51.986;4.666;2023-06-10T01:25:37;101533.28;;;30.34;30.25
38616;BME280;24370;51.986;4.666;2023-06-10T01:31:09;101536.56;;;31.03;29.09
38616;BME280;24370;51.986;4.666;2023-06-10T01:33:42;101535.88;;;30.89;28.99
38616;BME280;24370;51.986;4.666;2023-06-10T01:36:08;101532.84;;;30.61;29.90
38616;BME280;24370;51.986;4.666;2023-06-10T01:38:42;101531.75;;;30.20;30.48
38616;BME280;24370;51.986;4.666;2023-06-10T01:41:09;101524.81;;;30.92;29.28
38616;BME280;24370;51.986;4.666;2023-06-10T01:43:37;101530.16;;;30.83;29.16
38616;BME280;24370;51.986;4.666;2023-06-10T01:46:03;101531.41;;;30.78;29.41
38616;BME280;24370;51.986;4.666;2023-06-10T01:48:28;101524.81;;;31.04;29.04
38616;BME280;24370;51.986;4.666;2023-06-10T01:50:54;101534.28;;;30.66;29.66
38616;BME280;24370;51.986;4.666;2023-06-10T01:53:21;101532.06;;;30.71;29.53
38616;BME280;24370;51.986;4.666;2023-06-10T01:55:47;101535.06;;;30.56;29.64
38616;BME280;24370;51.986;4.666;2023-06-10T01:58:12;101530.44;;;30.47;29.62
38616;BME280;24370;51.986;4.666;2023-06-10T02:00:38;101525.16;;;30.02;30.63
38616;BME280;24370;51.986;4.666;2023-06-10T02:03:03;101529.03;;;30.20;30.42
38616;BME280;24370;51.986;4.666;2023-06-10T02:05:28;101536.81;;;30.35;29.83
38616;BME280;24370;51.986;4.666;2023-06-10T02:07:54;101540.50;;;30.45;30.12
38616;BME280;24370;51.986;4.666;2023-06-10T02:10:19;101531.66;;;30.54;29.50
38616;BME280;24370;51.986;4.666;2023-06-10T02:12:45;101529.03;;;30.20;29.72
38616;BME280;24370;51.986;4.666;2023-06-10T02:15:10;101533.53;;;30.75;28.99
38616;BME280;24370;51.986;4.666;2023-06-10T02:17:35;101540.28;;;30.37;29.70
38616;BME280;24370;51.986;4.666;2023-06-10T02:20:03;101540.72;;;29.30;30.86
38616;BME280;24370;51.986;4.666;2023-06-10T02:22:32;101533.75;;;29.73;30.46
38616;BME280;24370;51.986;4.666;2023-06-10T02:24:57;101528.97;;;30.54;29.26
38616;BME280;24370;51.986;4.666;2023-06-10T02:27:22;101538.25;;;30.61;29.50
38616;BME280;24370;51.986;4.666;2023-06-10T02:29:48;101537.34;;;30.28;29.30
38616;BME280;24370;51.986;4.666;2023-06-10T02:32:13;101549.41;;;29.34;30.81
38616;BME280;24370;51.986;4.666;2023-06-10T02:34:38;101538.88;;;29.99;29.83
38616;BME280;24370;51.986;4.666;2023-06-10T02:37:04;101541.09;;;30.05;29.63
38616;BME280;24370;51.986;4.666;2023-06-10T02:39:29;101542.88;;;28.78;31.55
38616;BME280;24370;51.986;4.666;2023-06-10T02:41:55;101544.91;;;29.91;29.70
38616;BME280;24370;51.986;4.666;2023-06-10T02:44:20;101534.03;;;30.25;29.36
38616;BME280;24370;51.986;4.666;2023-06-10T02:46:46;101542.81;;;29.60;30.31
38616;BME280;24370;51.986;4.666;2023-06-10T02:49:12;101541.59;;;29.99;30.13
38616;BME280;24370;51.986;4.666;2023-06-10T02:51:38;101540.13;;;29.94;29.62
38616;BME280;24370;51.986;4.666;2023-06-10T02:54:04;101542.09;;;29.92;29.69
38616;BME280;24370;51.986;4.666;2023-06-10T02:56:30;101538.41;;;29.93;29.57
38616;BME280;24370;51.986;4.666;2023-06-10T02:58:56;101541.84;;;29.61;30.18
38616;BME280;24370;51.986;4.666;2023-06-10T03:01:22;101538.91;;;29.87;29.36
38616;BME280;24370;51.986;4.666;2023-06-10T03:03:47;101552.97;;;28.99;30.26
38616;BME280;24370;51.986;4.666;2023-06-10T03:06:13;101548.38;;;29.23;30.28
38616;BME280;24370;51.986;4.666;2023-06-10T03:08:39;101541.59;;;29.76;29.36
38616;BME280;24370;51.986;4.666;2023-06-10T03:11:05;101545.50;;;29.94;29.42
38616;BME280;24370;51.986;4.666;2023-06-10T03:13:31;101541.97;;;29.60;29.67
38616;BME280;24370;51.986;4.666;2023-06-10T03:15:57;101549.72;;;29.06;29.80
38616;BME280;24370;51.986;4.666;2023-06-10T03:18:26;101550.38;;;29.44;29.46
38616;BME280;24370;51.986;4.666;2023-06-10T03:20:52;101546.97;;;29.31;29.41
38616;BME280;24370;51.986;4.666;2023-06-10T03:23:17;101547.84;;;28.96;30.46
38616;BME280;24370;51.986;4.666;2023-06-10T03:25:43;101549.47;;;28.74;30.31
38616;BME280;24370;51.986;4.666;2023-06-10T03:28:09;101552.00;;;28.88;29.98
38616;BME280;24370;51.986;4.666;2023-06-10T03:30:37;101553.22;;;28.96;30.12
38616;BME280;24370;51.986;4.666;2023-06-10T03:33:03;101553.06;;;28.86;30.28
38616;BME280;24370;51.986;4.666;2023-06-10T03:35:29;101558.47;;;28.37;30.82
38616;BME280;24370;51.986;4.666;2023-06-10T03:37:54;101560.72;;;28.06;31.24
38616;BME280;24370;51.986;4.666;2023-06-10T03:40:20;101558.91;;;28.31;30.45
38616;BME280;24370;51.986;4.666;2023-06-10T03:42:45;101563.19;;;27.97;31.16
38616;BME280;24370;51.986;4.666;2023-06-10T03:45:11;101564.69;;;28.38;30.66
38616;BME280;24370;51.986;4.666;2023-06-10T03:47:37;101564.00;;;28.47;30.75
38616;BME280;24370;51.986;4.666;2023-06-10T03:50:03;101563.13;;;28.95;29.63
38616;BME280;24370;51.986;4.666;2023-06-10T03:52:30;101567.56;;;28.72;29.96
38616;BME280;24370;51.986;4.666;2023-06-10T03:54:55;101573.38;;;28.17;30.81
38616;BME280;24370;51.986;4.666;2023-06-10T03:57:21;101571.88;;;29.10;29.49
38616;BME280;24370;51.986;4.666;2023-06-10T03:59:46;101575.56;;;28.60;30.56
38616;BME280;24370;51.986;4.666;2023-06-10T04:02:12;101568.13;;;28.88;30.13
38616;BME280;24370;51.986;4.666;2023-06-10T04:04:37;101575.38;;;29.35;29.57
38616;BME280;24370;51.986;4.666;2023-06-10T04:07:03;101577.97;;;29.12;29.94
38616;BME280;24370;51.986;4.666;2023-06-10T04:09:29;101572.06;;;28.47;30.60
38616;BME280;24370;51.986;4.666;2023-06-10T04:11:54;101582.53;;;28.87;30.52
38616;BME280;24370;51.986;4.666;2023-06-10T04:14:19;101577.06;;;29.36;30.40
38616;BME280;24370;51.986;4.666;2023-06-10T04:16:45;101577.69;;;28.68;30.56
38616;BME280;24370;51.986;4.666;2023-06-10T04:19:10;101575.78;;;28.57;31.16
38616;BME280;24370;51.986;4.666;2023-06-10T04:21:35;101579.88;;;28.99;30.58
38616;BME280;24370;51.986;4.666;2023-06-10T04:24:01;101575.00;;;28.92;30.67
38616;BME280;24370;51.986;4.666;2023-06-10T04:26:27;101586.59;;;29.28;29.98
38616;BME280;24370;51.986;4.666;2023-06-10T04:28:52;101586.72;;;28.67;31.19
38616;BME280;24370;51.986;4.666;2023-06-10T04:31:18;101590.59;;;28.39;31.49
38616;BME280;24370;51.986;4.666;2023-06-10T04:33:44;101596.66;;;29.38;30.11
38616;BME280;24370;51.986;4.666;2023-06-10T04:36:10;101589.81;;;29.34;30.06
38616;BME280;24370;51.986;4.666;2023-06-10T04:38:35;101593.53;;;28.84;30.81
38616;BME280;24370;51.986;4.666;2023-06-10T04:41:00;101593.59;;;29.42;30.79
38616;BME280;24370;51.986;4.666;2023-06-10T04:43:26;101600.84;;;28.82;31.01
38616;BME280;24370;51.986;4.666;2023-06-10T04:45:53;101595.31;;;29.32;30.33
38616;BME280;24370;51.986;4.666;2023-06-10T04:48:18;101603.31;;;29.68;30.22
38616;BME280;24370;51.986;4.666;2023-06-10T04:50:44;101591.78;;;31.20;27.94
38616;BME280;24370;51.986;4.666;2023-06-10T04:53:09;101592.34;;;30.81;28.82
38616;BME280;24370;51.986;4.666;2023-06-10T04:55:35;101596.72;;;31.15;28.13
38616;BME280;24370;51.986;4.666;2023-06-10T04:58:01;101592.78;;;32.02;26.88
38616;BME280;24370;51.986;4.666;2023-06-10T05:00:27;101600.66;;;31.74;26.94
38616;BME280;24370;51.986;4.666;2023-06-10T05:02:52;101599.72;;;32.45;25.89
38616;BME280;24370;51.986;4.666;2023-06-10T05:05:18;101598.88;;;32.35;26.32
38616;BME280;24370;51.986;4.666;2023-06-10T05:07:44;101598.13;;;32.23;26.10
38616;BME280;24370;51.986;4.666;2023-06-10T05:10:10;101596.63;;;31.68;27.28
38616;BME280;24370;51.986;4.666;2023-06-10T05:12:35;101603.19;;;33.06;25.80
38616;BME280;24370;51.986;4.666;2023-06-10T05:15:00;101604.56;;;32.32;26.44
38616;BME280;24370;51.986;4.666;2023-06-10T05:17:26;101602.88;;;31.59;27.25
38616;BME280;24370;51.986;4.666;2023-06-10T05:19:52;101602.50;;;30.56;29.05
38616;BME280;24370;51.986;4.666;2023-06-10T05:22:18;101600.00;;;30.65;29.01
38616;BME280;24370;51.986;4.666;2023-06-10T05:24:44;101607.59;;;30.04;30.30
38616;BME280;24370;51.986;4.666;2023-06-10T05:27:10;101596.94;;;30.03;30.28
38616;BME280;24370;51.986;4.666;2023-06-10T05:29:35;101602.22;;;29.82;30.48
38616;BME280;24370;51.986;4.666;2023-06-10T05:32:01;101600.59;;;29.79;30.52
38616;BME280;24370;51.986;4.666;2023-06-10T05:34:31;101601.94;;;30.74;29.65
38616;BME280;24370;51.986;4.666;2023-06-10T05:36:56;101603.03;;;30.27;29.91
38616;BME280;24370;51.986;4.666;2023-06-10T05:39:22;101599.31;;;30.40;29.99
38616;BME280;24370;51.986;4.666;2023-06-10T05:41:47;101602.25;;;31.13;29.22
38616;BME280;24370;51.986;4.666;2023-06-10T05:44:13;101604.03;;;29.58;30.95
38616;BME280;24370;51.986;4.666;2023-06-10T05:46:38;101607.09;;;30.22;30.25
38616;BME280;24370;51.986;4.666;2023-06-10T05:49:04;101616.72;;;30.47;30.43
38616;BME280;24370;51.986;4.666;2023-06-10T05:51:29;101606.47;;;30.29;30.59
38616;BME280;24370;51.986;4.666;2023-06-10T05:53:54;101613.09;;;30.25;30.15
38616;BME280;24370;51.986;4.666;2023-06-10T05:56:20;101614.19;;;30.78;29.98
38616;BME280;24370;51.986;4.666;2023-06-10T05:58:47;101616.25;;;30.31;30.57
38616;BME280;24370;51.986;4.666;2023-06-10T06:01:13;101607.19;;;30.54;30.49
38616;BME280;24370;51.986;4.666;2023-06-10T06:03:38;101611.28;;;30.70;30.02
38616;BME280;24370;51.986;4.666;2023-06-10T06:06:04;101605.88;;;30.70;30.09
38616;BME280;24370;51.986;4.666;2023-06-10T06:08:30;101606.25;;;30.21;30.51
38616;BME280;24370;51.986;4.666;2023-06-10T06:10:55;101609.06;;;31.28;29.27
38616;BME280;24370;51.986;4.666;2023-06-10T06:13:20;101605.16;;;31.21;29.38
38616;BME280;24370;51.986;4.666;2023-06-10T06:15:46;101598.72;;;31.95;28.36
38616;BME280;24370;51.986;4.666;2023-06-10T06:18:11;101609.41;;;34.11;25.56
38616;BME280;24370;51.986;4.666;2023-06-10T06:20:36;101612.44;;;34.54;25.07
38616;BME280;24370;51.986;4.666;2023-06-10T06:23:02;101611.81;;;35.66;23.09
38616;BME280;24370;51.986;4.666;2023-06-10T06:25:27;101612.97;;;35.11;23.87
38616;BME280;24370;51.986;4.666;2023-06-10T06:27:52;101616.28;;;35.76;23.34
38616;BME280;24370;51.986;4.666;2023-06-10T06:30:18;101610.13;;;35.65;23.15
38616;BME280;24370;51.986;4.666;2023-06-10T06:32:43;101609.25;;;36.67;22.07
38616;BME280;24370;51.986;4.666;2023-06-10T06:35:08;101615.56;;;37.17;21.74
38616;BME280;24370;51.986;4.666;2023-06-10T06:37:35;101612.03;;;36.24;22.70
38616;BME280;24370;51.986;4.666;2023-06-10T06:40:01;101615.53;;;36.43;22.20
38616;BME280;24370;51.986;4.666;2023-06-10T06:42:26;101611.97;;;37.16;21.27
38616;BME280;24370;51.986;4.666;2023-06-10T06:44:52;101615.53;;;37.50;21.53
38616;BME280;24370;51.986;4.666;2023-06-10T06:47:17;101622.72;;;38.30;20.46
38616;BME280;24370;51.986;4.666;2023-06-10T06:49:46;101631.22;;;38.35;21.23
38616;BME280;24370;51.986;4.666;2023-06-10T06:52:11;101620.72;;;38.79;19.52
38616;BME280;24370;51.986;4.666;2023-06-10T06:54:36;101627.25;;;39.46;19.03
38616;BME280;24370;51.986;4.666;2023-06-10T06:57:02;101620.63;;;40.15;18.82
38616;BME280;24370;51.986;4.666;2023-06-10T06:59:27;101625.75;;;40.61;17.98
38616;BME280;24370;51.986;4.666;2023-06-10T07:01:52;101620.22;;;41.26;17.63
38616;BME280;24370;51.986;4.666;2023-06-10T07:04:19;101636.69;;;41.61;17.64
38616;BME280;24370;51.986;4.666;2023-06-10T07:06:47;101635.13;;;41.17;17.48
38616;BME280;24370;51.986;4.666;2023-06-10T07:09:12;101641.56;;;42.08;16.70
38616;BME280;24370;51.986;4.666;2023-06-10T07:11:37;101634.75;;;41.97;17.55
38616;BME280;24370;51.986;4.666;2023-06-10T07:14:03;101631.81;;;41.28;17.05
38616;BME280;24370;51.986;4.666;2023-06-10T07:16:28;101633.84;;;42.31;16.05
38616;BME280;24370;51.986;4.666;2023-06-10T07:18:53;101632.41;;;43.29;15.62
38616;BME280;24370;51.986;4.666;2023-06-10T07:21:19;101638.09;;;42.41;16.32
38616;BME280;24370;51.986;4.666;2023-06-10T07:23:44;101634.50;;;41.85;16.39
38616;BME280;24370;51.986;4.666;2023-06-10T07:26:10;101635.78;;;41.89;16.66
38616;BME280;24370;51.986;4.666;2023-06-10T07:28:37;101636.59;;;43.65;15.67
38616;BME280;24370;51.986;4.666;2023-06-10T07:31:03;101635.94;;;43.63;15.49
38616;BME280;24370;51.986;4.666;2023-06-10T07:33:28;101630.28;;;43.38;15.33
38616;BME280;24370;51.986;4.666;2023-06-10T07:35:54;101635.81;;;43.04;15.97
38616;BME280;24370;51.986;4.666;2023-06-10T07:38:19;101639.19;;;42.93;16.25
38616;BME280;24370;51.986;4.666;2023-06-10T07:40:45;101636.44;;;42.73;15.87
38616;BME280;24370;51.986;4.666;2023-06-10T07:43:10;101635.63;;;42.93;15.81
38616;BME280;24370;51.986;4.666;2023-06-10T07:45:36;101636.97;;;43.76;15.81
38616;BME280;24370;51.986;4.666;2023-06-10T07:48:01;101633.31;;;44.91;14.92
38616;BME280;24370;51.986;4.666;2023-06-10T07:50:26;101643.41;;;43.29;15.44
38616;BME280;24370;51.986;4.666;2023-06-10T07:52:52;101638.72;;;43.43;15.27
38616;BME280;24370;51.986;4.666;2023-06-10T07:55:17;101650.59;;;42.70;15.69
38616;BME280;24370;51.986;4.666;2023-06-10T07:57:43;101638.56;;;42.02;16.54
38616;BME280;24370;51.986;4.666;2023-06-10T08:00:08;101640.06;;;43.99;15.17
38616;BME280;24370;51.986;4.666;2023-06-10T08:02:37;101642.06;;;45.13;14.60
38616;BME280;24370;51.986;4.666;2023-06-10T08:05:03;101639.19;;;46.31;14.01
38616;BME280;24370;51.986;4.666;2023-06-10T08:07:28;101644.00;;;46.36;13.54
38616;BME280;24370;51.986;4.666;2023-06-10T08:09:53;101638.72;;;45.67;13.78
38616;BME280;24370;51.986;4.666;2023-06-10T08:12:19;101642.41;;;44.66;14.60
38616;BME280;24370;51.986;4.666;2023-06-10T08:14:45;101644.25;;;43.50;15.04
38616;BME280;24370;51.986;4.666;2023-06-10T08:17:11;101635.41;;;44.38;15.40
38616;BME280;24370;51.986;4.666;2023-06-10T08:19:36;101642.09;;;43.65;15.54
38616;BME280;24370;51.986;4.666;2023-06-10T08:22:01;101642.28;;;44.86;14.59
38616;BME280;24370;51.986;4.666;2023-06-10T08:24:27;101639.31;;;44.88;14.90
38616;BME280;24370;51.986;4.666;2023-06-10T08:26:52;101641.44;;;45.92;14.74
38616;BME280;24370;51.986;4.666;2023-06-10T08:29:17;101636.03;;;46.28;13.53
38616;BME280;24370;51.986;4.666;2023-06-10T08:31:44;101647.81;;;44.16;14.55
38616;BME280;24370;51.986;4.666;2023-06-10T08:34:10;101640.25;;;45.00;15.57
38616;BME280;24370;51.986;4.666;2023-06-10T08:36:35;101647.19;;;43.55;15.45
38616;BME280;24370;51.986;4.666;2023-06-10T08:39:01;101648.28;;;43.27;15.86
38616;BME280;24370;51.986;4.666;2023-06-10T08:41:28;101650.28;;;44.31;15.08
38616;BME280;24370;51.986;4.666;2023-06-10T08:44:22;101648.06;;;43.49;15.11
38616;BME280;24370;51.986;4.666;2023-06-10T08:46:47;101654.28;;;44.67;14.77
38616;BME280;24370;51.986;4.666;2023-06-10T08:49:17;101648.19;;;45.59;13.46
38616;BME280;24370;51.986;4.666;2023-06-10T08:51:43;101649.00;;;44.27;15.05
38616;BME280;24370;51.986;4.666;2023-06-10T08:54:18;101648.38;;;44.63;14.50
38616;BME280;24370;51.986;4.666;2023-06-10T08:56:49;101650.53;;;46.23;14.05
38616;BME280;24370;51.986;4.666;2023-06-10T08:59:15;101642.94;;;47.15;13.09
38616;BME280;24370;51.986;4.666;2023-06-10T09:01:43;101644.81;;;46.90;13.88
38616;BME280;24370;51.986;4.666;2023-06-10T09:04:09;101643.47;;;47.64;12.94
38616;BME280;24370;51.986;4.666;2023-06-10T09:06:35;101642.88;;;48.49;12.49
38616;BME280;24370;51.986;4.666;2023-06-10T09:09:02;101635.31;;;47.46;12.21
38616;BME280;24370;51.986;4.666;2023-06-10T09:11:28;101635.50;;;47.80;12.30
38616;BME280;24370;51.986;4.666;2023-06-10T09:13:53;101650.72;;;46.70;12.48
38616;BME280;24370;51.986;4.666;2023-06-10T09:16:19;101644.94;;;45.62;14.04
38616;BME280;24370;51.986;4.666;2023-06-10T09:18:44;101647.13;;;46.82;13.94
38616;BME280;24370;51.986;4.666;2023-06-10T09:21:09;101650.13;;;47.28;14.08
38616;BME280;24370;51.986;4.666;2023-06-10T09:23:36;101652.47;;;47.83;12.98
38616;BME280;24370;51.986;4.666;2023-06-10T09:26:02;101652.16;;;48.71;12.79
38616;BME280;24370;51.986;4.666;2023-06-10T09:28:30;101653.16;;;48.99;11.34
38616;BME280;24370;51.986;4.666;2023-06-10T09:31:05;101634.97;;;47.30;12.99
38616;BME280;24370;51.986;4.666;2023-06-10T09:33:32;101643.34;;;47.71;11.64
38616;BME280;24370;51.986;4.666;2023-06-10T09:36:00;101648.19;;;47.52;11.95
38616;BME280;24370;51.986;4.666;2023-06-10T09:38:32;101642.72;;;47.81;11.70
38616;BME280;24370;51.986;4.666;2023-06-10T09:40:57;101647.16;;;47.17;12.19
38616;BME280;24370;51.986;4.666;2023-06-10T09:43:38;101651.97;;;49.29;11.69
38616;BME280;24370;51.986;4.666;2023-06-10T09:46:04;101645.41;;;49.18;10.97
38616;BME280;24370;51.986;4.666;2023-06-10T09:48:29;101648.50;;;49.61;10.65
38616;BME280;24370;51.986;4.666;2023-06-10T09:50:55;101642.88;;;48.49;11.85
38616;BME280;24370;51.986;4.666;2023-06-10T09:53:20;101641.41;;;48.58;11.33
38616;BME280;24370;51.986;4.666;2023-06-10T09:55:46;101639.00;;;47.75;12.31
38616;BME280;24370;51.986;4.666;2023-06-10T09:58:11;101643.31;;;47.06;11.70
38616;BME280;24370;51.986;4.666;2023-06-10T10:00:36;101644.63;;;48.21;11.30
38616;BME280;24370;51.986;4.666;2023-06-10T10:03:02;101649.09;;;47.05;11.44
38616;BME280;24370;51.986;4.666;2023-06-10T10:05:28;101639.81;;;47.76;12.98
38616;BME280;24370;51.986;4.666;2023-06-10T10:07:55;101642.78;;;47.98;11.53
38616;BME280;24370;51.986;4.666;2023-06-10T10:10:22;101636.00;;;48.34;11.39
38616;BME280;24370;51.986;4.666;2023-06-10T10:12:48;101640.78;;;48.22;11.45
38616;BME280;24370;51.986;4.666;2023-06-10T10:15:17;101629.88;;;49.39;11.14
38616;BME280;24370;51.986;4.666;2023-06-10T10:17:48;101632.66;;;50.06;10.22
38616;BME280;24370;51.986;4.666;2023-06-10T10:20:17;101627.00;;;47.98;11.75
38616;BME280;24370;51.986;4.666;2023-06-10T10:22:46;101631.63;;;46.08;12.24
38616;BME280;24370;51.986;4.666;2023-06-10T10:25:24;101630.03;;;46.73;12.11
38616;BME280;24370;51.986;4.666;2023-06-10T10:27:57;101630.88;;;46.73;12.34
38616;BME280;24370;51.986;4.666;2023-06-10T10:30:25;101622.38;;;46.33;12.19
38616;BME280;24370;51.986;4.666;2023-06-10T10:32:58;101625.06;;;45.90;11.85
38616;BME280;24370;51.986;4.666;2023-06-10T10:35:26;101620.28;;;45.67;12.43
38616;BME280;24370;51.986;4.666;2023-06-10T10:37:53;101626.66;;;45.24;13.16
38616;BME280;24370;51.986;4.666;2023-06-10T10:40:20;101620.88;;;45.69;12.25
38616;BME280;24370;51.986;4.666;2023-06-10T10:42:48;101624.00;;;44.92;13.34
38616;BME280;24370;51.986;4.666;2023-06-10T10:45:14;101614.56;;;45.44;12.52
38616;BME280;24370;51.986;4.666;2023-06-10T10:47:41;101612.53;;;46.37;12.75
38616;BME280;24370;51.986;4.666;2023-06-10T10:50:17;101619.84;;;46.31;12.37
38616;BME280;24370;51.986;4.666;2023-06-10T10:53:03;101613.44;;;44.89;13.18
38616;BME280;24370;51.986;4.666;2023-06-10T10:55:29;101606.34;;;46.77;13.33
38616;BME280;24370;51.986;4.666;2023-06-10T10:57:55;101608.50;;;47.46;11.92
38616;BME280;24370;51.986;4.666;2023-06-10T11:05:39;101605.09;;;45.58;12.53
38616;BME280;24370;51.986;4.666;2023-06-10T11:08:05;101612.28;;;46.38;13.15
38616;BME280;24370;51.986;4.666;2023-06-10T11:10:39;101605.59;;;46.16;12.44
38616;BME280;24370;51.986;4.666;2023-06-10T11:13:06;101597.94;;;47.84;11.71
38616;BME280;24370;51.986;4.666;2023-06-10T11:15:33;101603.41;;;47.96;11.64
38616;BME280;24370;51.986;4.666;2023-06-10T11:18:29;101606.97;;;46.91;11.32
38616;BME280;24370;51.986;4.666;2023-06-10T11:20:59;101605.63;;;46.70;11.83
38616;BME280;24370;51.986;4.666;2023-06-10T11:26:16;101594.59;;;45.97;12.47
38616;BME280;24370;51.986;4.666;2023-06-10T11:29:04;101593.66;;;47.12;10.89
38616;BME280;24370;51.986;4.666;2023-06-10T11:34:06;101589.22;;;45.35;12.36
38616;BME280;24370;51.986;4.666;2023-06-10T11:36:42;101592.72;;;46.52;11.32
38616;BME280;24370;51.986;4.666;2023-06-10T11:39:10;101591.75;;;45.55;11.79
38616;BME280;24370;51.986;4.666;2023-06-10T11:41:37;101579.88;;;46.46;11.33
38616;BME280;24370;51.986;4.666;2023-06-10T11:46:33;101590.84;;;47.76;10.97
38616;BME280;24370;51.986;4.666;2023-06-10T11:49:02;101578.50;;;47.96;10.51
38616;BME280;24370;51.986;4.666;2023-06-10T11:51:39;101576.63;;;47.44;11.14
38616;BME280;24370;51.986;4.666;2023-06-10T11:54:08;101581.38;;;47.08;11.54
38616;BME280;24370;51.986;4.666;2023-06-10T11:56:37;101583.50;;;46.58;11.50
38616;BME280;24370;51.986;4.666;2023-06-10T11:59:06;101572.22;;;47.07;11.74
38616;BME280;24370;51.986;4.666;2023-06-10T12:01:42;101578.94;;;47.23;11.24
38616;BME280;24370;51.986;4.666;2023-06-10T12:04:09;101566.56;;;46.90;11.41
38616;BME280;24370;51.986;4.666;2023-06-10T12:09:26;101577.13;;;46.46;11.92
38616;BME280;24370;51.986;4.666;2023-06-10T12:11:58;101570.38;;;46.42;11.04
38616;BME280;24370;51.986;4.666;2023-06-10T12:14:56;101563.88;;;46.48;12.19
38616;BME280;24370;51.986;4.666;2023-06-10T12:19:48;101563.28;;;46.34;11.40
38616;BME280;24370;51.986;4.666;2023-06-10T12:22:14;101565.25;;;46.15;11.53
38616;BME280;24370;51.986;4.666;2023-06-10T12:27:24;101559.72;;;43.12;13.09
38616;BME280;24370;51.986;4.666;2023-06-10T12:29:53;101564.72;;;44.58;13.18
38616;BME280;24370;51.986;4.666;2023-06-10T12:32:44;101569.59;;;43.85;12.71
38616;BME280;24370;51.986;4.666;2023-06-10T12:35:12;101561.41;;;42.86;13.46
38616;BME280;24370;51.986;4.666;2023-06-10T12:37:39;101559.53;;;44.93;12.98
38616;BME280;24370;51.986;4.666;2023-06-10T12:40:06;101559.13;;;43.62;12.58
38616;BME280;24370;51.986;4.666;2023-06-10T12:42:33;101557.06;;;45.78;12.04
38616;BME280;24370;51.986;4.666;2023-06-10T12:45:01;101566.72;;;45.68;11.89
38616;BME280;24370;51.986;4.666;2023-06-10T12:47:31;101557.94;;;45.22;12.14
38616;BME280;24370;51.986;4.666;2023-06-10T12:49:58;101563.75;;;44.70;11.73
38616;BME280;24370;51.986;4.666;2023-06-10T12:52:24;101562.91;;;45.69;11.72
38616;BME280;24370;51.986;4.666;2023-06-10T12:54:49;101565.34;;;45.03;12.23
38616;BME280;24370;51.986;4.666;2023-06-10T12:57:15;101563.44;;;46.20;11.63
38616;BME280;24370;51.986;4.666;2023-06-10T12:59:40;101555.69;;;45.68;11.84
38616;BME280;24370;51.986;4.666;2023-06-10T13:02:07;101557.25;;;45.46;11.60
38616;BME280;24370;51.986;4.666;2023-06-10T13:04:32;101553.97;;;45.18;12.07
38616;BME280;24370;51.986;4.666;2023-06-10T13:06:58;101551.50;;;45.29;11.50
38616;BME280;24370;51.986;4.666;2023-06-10T13:09:24;101553.25;;;45.42;12.32
38616;BME280;24370;51.986;4.666;2023-06-10T13:11:49;101550.38;;;45.18;11.89
38616;BME280;24370;51.986;4.666;2023-06-10T13:14:15;101536.38;;;44.94;12.21
38616;BME280;24370;51.986;4.666;2023-06-10T13:16:40;101551.13;;;45.25;12.16